Time;durP1;ratioP1;P1;durP2;ratioP2;P2;SDS_P1;SDS_P2;PMS_P1;PMS_P2;Temp;Humidity;BMP_temperature;BMP_pressure;BME280_temperature;BME280_humidity;BME280_pressure;Samples;Min_cycle;Max_cycle;Signal;HPM_P1;HPM_P2
2023/03/18 00:00:19;;;;;;;5.75;4.30;;;;;18.30;100605.00;;;;5048209;28;20737;-75
2023/03/18 00:02:49;;;;;;;6.05;4.18;;;;;18.30;100606.00;;;;5048767;28;20261;-75
2023/03/18 00:05:17;;;;;;;7.32;4.10;;;;;18.30;100605.00;;;;5050666;28;20195;-75
2023/03/18 00:07:45;;;;;;;6.47;4.38;;;;;18.20;100607.00;;;;5046686;28;20219;-74
2023/03/18 00:10:13;;;;;;;7.63;5.05;;;;;18.20;100599.00;;;;5046150;28;20555;-74
2023/03/18 00:12:41;;;;;;;5.85;4.38;;;;;18.10;100610.00;;;;5039596;28;20215;-75
2023/03/18 00:15:12;;;;;;;6.10;4.60;;;;;18.00;100610.00;;;;5049790;28;20211;-75
2023/03/18 00:17:40;;;;;;;9.55;5.45;;;;;18.00;100601.00;;;;5045182;28;20231;-75
2023/03/18 00:20:08;;;;;;;6.05;5.00;;;;;18.00;100612.00;;;;5038274;28;20214;-74
2023/03/18 00:22:37;;;;;;;8.38;5.43;;;;;18.00;100610.00;;;;5049639;28;20214;-75
2023/03/18 00:25:06;;;;;;;6.88;4.45;;;;;17.90;100614.00;;;;5048808;28;20196;-75
2023/03/18 00:27:34;;;;;;;6.15;4.70;;;;;17.90;100619.00;;;;5043486;28;20227;-75
2023/03/18 00:30:03;;;;;;;6.28;5.05;;;;;17.80;100620.00;;;;5046570;28;20581;-75
2023/03/18 00:32:32;;;;;;;5.78;4.68;;;;;17.80;100612.00;;;;5046684;28;20230;-74
2023/03/18 00:35:01;;;;;;;5.05;4.30;;;;;17.80;100617.00;;;;5049040;28;20253;-75
2023/03/18 00:37:30;;;;;;;5.20;4.13;;;;;17.80;100622.00;;;;5050020;28;20219;-74
2023/03/18 00:39:58;;;;;;;6.18;4.15;;;;;17.70;100621.00;;;;5046742;28;20204;-75
2023/03/18 00:42:25;;;;;;;5.38;4.45;;;;;17.70;100614.00;;;;5049280;28;20199;-74
2023/03/18 00:44:53;;;;;;;9.55;5.13;;;;;17.70;100609.00;;;;5047554;28;20206;-75
2023/03/18 00:47:20;;;;;;;5.55;4.38;;;;;17.70;100615.00;;;;5033006;28;20212;-75
2023/03/18 00:49:50;;;;;;;7.05;4.90;;;;;17.60;100619.00;;;;5047939;28;20192;-75
2023/03/18 00:52:18;;;;;;;7.85;5.40;;;;;17.70;100616.00;;;;5048438;28;20224;-75
2023/03/18 00:54:46;;;;;;;6.30;4.55;;;;;17.60;100610.00;;;;5049885;28;20576;-74
2023/03/18 00:57:13;;;;;;;8.40;5.22;;;;;17.60;100613.00;;;;5043636;28;20203;-75
2023/03/18 00:59:41;;;;;;;6.75;5.18;;;;;17.60;100615.00;;;;5042862;28;20224;-75
2023/03/18 01:02:08;;;;;;;5.85;5.07;;;;;17.60;100612.00;;;;5047303;28;20211;-75
2023/03/18 01:04:37;;;;;;;6.85;4.85;;;;;17.60;100621.00;;;;5039202;28;20207;-74
2023/03/18 01:07:06;;;;;;;8.00;5.07;;;;;17.60;100609.00;;;;5049000;28;20199;-75
2023/03/18 01:09:33;;;;;;;6.50;5.07;;;;;17.60;100607.00;;;;5046723;28;20207;-75
2023/03/18 01:12:00;;;;;;;9.45;5.60;;;;;17.50;100595.00;;;;5045735;28;20254;-74
2023/03/18 01:14:28;;;;;;;8.10;6.10;;;;;17.60;100609.00;;;;5048956;28;20196;-74
2023/03/18 01:16:56;;;;;;;8.15;5.97;;;;;17.50;100612.00;;;;5048375;28;20206;-75
2023/03/18 01:19:25;;;;;;;7.20;5.90;;;;;17.50;100616.00;;;;5038775;28;20220;-75
2023/03/18 01:21:52;;;;;;;6.72;5.72;;;;;17.50;100612.00;;;;5042477;28;20206;-75
2023/03/18 01:24:21;;;;;;;9.27;5.60;;;;;17.50;100620.00;;;;5050404;28;20227;-75
2023/03/18 01:26:49;;;;;;;9.88;5.85;;;;;17.50;100612.00;;;;5048631;28;20207;-74
2023/03/18 01:29:16;;;;;;;6.82;5.25;;;;;17.50;100622.00;;;;5050624;28;20230;-74
2023/03/18 01:31:44;;;;;;;5.97;5.18;;;;;17.50;100619.00;;;;5048371;28;20199;-75
2023/03/18 01:34:11;;;;;;;7.22;5.93;;;;;17.50;100616.00;;;;5049448;28;20295;-75
2023/03/18 01:36:38;;;;;;;9.88;6.47;;;;;17.50;100622.00;;;;5049986;28;20226;-74
2023/03/18 01:39:06;;;;;;;7.63;5.30;;;;;17.50;100620.00;;;;5048784;28;20235;-74
2023/03/18 01:41:35;;;;;;;7.90;5.50;;;;;17.50;100623.00;;;;5045797;28;20203;-74
2023/03/18 01:44:03;;;;;;;8.88;5.57;;;;;17.40;100618.00;;;;5048183;28;20203;-74
2023/03/18 01:46:35;;;;;;;8.23;5.82;;;;;17.40;100616.00;;;;5048495;28;20666;-74
2023/03/18 01:49:05;;;;;;;8.43;6.40;;;;;17.40;100619.00;;;;5048709;28;20218;-74
2023/03/18 01:51:33;;;;;;;8.05;5.93;;;;;17.40;100616.00;;;;5041551;28;21831;-75
2023/03/18 01:54:05;;;;;;;8.43;5.95;;;;;17.40;100614.00;;;;5044715;28;20224;-74
2023/03/18 01:56:36;;;;;;;8.13;5.28;;;;;17.40;100619.00;;;;5040039;28;20199;-74
2023/03/18 01:59:05;;;;;;;9.00;5.90;;;;;17.40;100607.00;;;;5047088;28;20277;-74
2023/03/18 02:01:35;;;;;;;7.78;5.85;;;;;17.40;100617.00;;;;5037289;28;20203;-75
2023/03/18 02:04:05;;;;;;;7.82;5.45;;;;;17.40;100615.00;;;;5048340;28;20200;-76
2023/03/18 02:06:32;;;;;;;8.05;5.82;;;;;17.40;100618.00;;;;5048252;28;20207;-76
2023/03/18 02:09:00;;;;;;;10.13;6.75;;;;;17.40;100623.00;;;;5045340;28;20223;-76
2023/03/18 02:11:27;;;;;;;7.38;5.93;;;;;17.40;100627.00;;;;5044001;28;20211;-75
2023/03/18 02:13:56;;;;;;;9.98;6.60;;;;;17.40;100628.00;;;;5035773;28;20210;-76
2023/03/18 02:16:27;;;;;;;6.78;5.05;;;;;17.40;100630.00;;;;5046985;28;20203;-76
2023/03/18 02:18:58;;;;;;;6.93;5.82;;;;;17.40;100628.00;;;;5046382;28;20689;-76
2023/03/18 02:21:37;;;;;;;7.85;6.20;;;;;17.40;100627.00;;;;5042291;28;20204;-76
2023/03/18 02:24:19;;;;;;;7.25;5.30;;;;;17.40;100620.00;;;;5045377;28;20683;-76
2023/03/18 02:26:56;;;;;;;8.35;5.75;;;;;17.40;100630.00;;;;5046309;28;20199;-75
2023/03/18 02:29:27;;;;;;;6.70;5.03;;;;;17.40;100618.00;;;;5036908;28;20211;-76
2023/03/18 02:31:56;;;;;;;8.55;5.13;;;;;17.40;100629.00;;;;5046245;28;20196;-75
2023/03/18 02:34:24;;;;;;;8.90;5.38;;;;;17.40;100629.00;;;;5048051;28;20249;-75
2023/03/18 02:36:52;;;;;;;6.72;5.57;;;;;17.40;100628.00;;;;5047903;28;20199;-76
2023/03/18 02:39:21;;;;;;;9.02;5.95;;;;;17.40;100634.00;;;;5047859;28;20231;-73
2023/03/18 02:41:49;;;;;;;9.38;5.30;;;;;17.40;100626.00;;;;5043408;28;20200;-73
2023/03/18 02:44:18;;;;;;;6.90;6.18;;;;;17.40;100631.00;;;;5046529;28;20249;-73
2023/03/18 02:46:52;;;;;;;6.85;5.40;;;;;17.30;100629.00;;;;5031086;28;20207;-74
2023/03/18 02:49:21;;;;;;;15.82;4.95;;;;;17.40;100640.00;;;;5029868;28;20203;-73
2023/03/18 02:51:50;;;;;;;9.90;6.22;;;;;17.40;100632.00;;;;5044921;28;20192;-73
2023/03/18 02:54:22;;;;;;;9.00;6.25;;;;;17.30;100630.00;;;;5047062;28;20196;-73
2023/03/18 02:56:50;;;;;;;10.65;6.78;;;;;17.40;100638.00;;;;5032201;28;20195;-73
2023/03/18 02:59:18;;;;;;;8.38;6.82;;;;;17.40;100633.00;;;;5048015;28;20219;-73
2023/03/18 03:01:49;;;;;;;9.30;6.63;;;;;17.40;100636.00;;;;5044951;28;20188;-73
2023/03/18 03:04:17;;;;;;;11.32;6.80;;;;;17.40;100634.00;;;;5039880;28;20588;-73
2023/03/18 03:06:45;;;;;;;9.07;6.85;;;;;17.40;100636.00;;;;5048234;28;20666;-73
2023/03/18 03:09:15;;;;;;;8.75;7.18;;;;;17.40;100643.00;;;;5046080;28;20200;-73
2023/03/18 03:11:45;;;;;;;8.52;6.70;;;;;17.40;100644.00;;;;5039557;28;20685;-73
2023/03/18 03:14:13;;;;;;;8.10;6.82;;;;;17.40;100644.00;;;;5045681;28;20196;-74
2023/03/18 03:16:41;;;;;;;8.80;6.38;;;;;17.40;100652.00;;;;5046291;28;20627;-73
2023/03/18 03:19:09;;;;;;;8.45;6.72;;;;;17.40;100650.00;;;;5043218;28;20232;-74
2023/03/18 03:21:37;;;;;;;8.70;6.30;;;;;17.40;100657.00;;;;5048469;28;20203;-74
2023/03/18 03:24:05;;;;;;;10.07;6.80;;;;;17.40;100658.00;;;;5048699;28;20207;-74
2023/03/18 03:26:33;;;;;;;7.82;6.70;;;;;17.40;100667.00;;;;5047667;28;20291;-73
2023/03/18 03:29:00;;;;;;;9.98;6.90;;;;;17.40;100659.00;;;;5046313;28;20273;-74
2023/03/18 03:31:28;;;;;;;8.35;6.82;;;;;17.40;100661.00;;;;5048136;28;20211;-73
2023/03/18 03:33:56;;;;;;;8.45;6.55;;;;;17.40;100660.00;;;;5047546;28;20199;-74
2023/03/18 03:36:24;;;;;;;9.73;6.85;;;;;17.30;100659.00;;;;5029105;28;20290;-74
2023/03/18 03:38:52;;;;;;;8.32;6.40;;;;;17.40;100663.00;;;;5040217;28;20238;-73
2023/03/18 03:41:20;;;;;;;8.63;6.68;;;;;17.30;100670.00;;;;5047874;28;20195;-73
2023/03/18 03:43:47;;;;;;;8.05;6.40;;;;;17.30;100668.00;;;;5048764;28;20257;-75
2023/03/18 03:46:15;;;;;;;10.65;6.97;;;;;17.30;100665.00;;;;5047507;28;20204;-75
2023/03/18 03:48:43;;;;;;;7.32;5.88;;;;;17.30;100664.00;;;;5045211;28;20303;-74
2023/03/18 03:51:10;;;;;;;7.85;6.32;;;;;17.30;100666.00;;;;5047621;28;20561;-75
2023/03/18 03:53:39;;;;;;;11.98;6.30;;;;;17.30;100671.00;;;;5041084;28;20606;-74
2023/03/18 03:56:07;;;;;;;7.53;6.30;;;;;17.30;100671.00;;;;5043847;28;20203;-74
2023/03/18 03:58:35;;;;;;;12.02;7.03;;;;;17.30;100672.00;;;;5045791;28;20200;-74
2023/03/18 04:01:03;;;;;;;11.23;6.93;;;;;17.30;100682.00;;;;5042660;28;20195;-74
2023/03/18 04:03:31;;;;;;;10.07;6.88;;;;;17.30;100672.00;;;;5039377;28;20227;-75
2023/03/18 04:05:58;;;;;;;7.95;6.88;;;;;17.30;100670.00;;;;5049380;28;20206;-75
2023/03/18 04:08:25;;;;;;;8.27;6.32;;;;;17.30;100675.00;;;;5047813;28;20227;-75
2023/03/18 04:10:54;;;;;;;8.35;6.35;;;;;17.30;100676.00;;;;5038227;28;20577;-75
2023/03/18 04:13:22;;;;;;;9.05;6.80;;;;;17.30;100676.00;;;;5050268;28;20200;-75
2023/03/18 04:15:49;;;;;;;9.70;7.57;;;;;17.30;100673.00;;;;5048603;28;20199;-75
2023/03/18 04:18:16;;;;;;;9.18;6.55;;;;;17.30;100674.00;;;;5047194;28;20199;-75
2023/03/18 04:20:45;;;;;;;10.43;7.05;;;;;17.30;100672.00;;;;5049014;28;20228;-75
2023/03/18 04:23:13;;;;;;;8.45;6.75;;;;;17.30;100671.00;;;;5047878;28;20727;-75
2023/03/18 04:25:40;;;;;;;7.78;6.15;;;;;17.20;100673.00;;;;5040961;28;20669;-74
2023/03/18 04:28:09;;;;;;;9.77;6.82;;;;;17.20;100683.00;;;;5043800;28;20281;-75
2023/03/18 04:30:36;;;;;;;6.57;5.78;;;;;17.20;100684.00;;;;5048782;28;20219;-75
2023/03/18 04:33:04;;;;;;;8.35;6.38;;;;;17.20;100685.00;;;;5048255;28;20196;-75
2023/03/18 04:35:32;;;;;;;8.25;6.70;;;;;17.20;100678.00;;;;5049236;28;20208;-74
2023/03/18 04:38:00;;;;;;;9.50;6.13;;;;;17.20;100678.00;;;;5049636;28;20195;-75
2023/03/18 04:40:27;;;;;;;6.57;5.63;;;;;17.20;100680.00;;;;5050200;28;20235;-75
2023/03/18 04:42:55;;;;;;;9.25;5.85;;;;;17.20;100686.00;;;;5048714;28;20315;-75
2023/03/18 04:45:24;;;;;;;11.45;6.93;;;;;17.20;100691.00;;;;5044674;28;20191;-75
2023/03/18 04:47:52;;;;;;;9.02;6.60;;;;;17.20;100680.00;;;;5049564;28;20476;-75
2023/03/18 04:50:19;;;;;;;7.80;6.30;;;;;17.20;100682.00;;;;5048669;28;20203;-75
2023/03/18 04:52:47;;;;;;;8.90;6.68;;;;;17.20;100675.00;;;;5048681;28;20207;-75
2023/03/18 04:55:15;;;;;;;6.88;6.10;;;;;17.10;100679.00;;;;5047376;28;20606;-74
2023/03/18 04:57:43;;;;;;;8.45;6.32;;;;;17.10;100685.00;;;;5047066;28;20681;-74
2023/03/18 05:00:16;;;;;;;7.97;6.68;;;;;17.10;100682.00;;;;5046551;28;20226;-75
2023/03/18 05:02:44;;;;;;;9.52;5.55;;;;;17.10;100684.00;;;;5049161;28;20602;-74
2023/03/18 05:05:12;;;;;;;7.35;5.93;;;;;17.10;100688.00;;;;5049130;28;20203;-75
2023/03/18 05:07:41;;;;;;;8.02;5.85;;;;;17.10;100689.00;;;;5048610;28;20636;-75
2023/03/18 05:10:09;;;;;;;9.45;6.50;;;;;17.10;100693.00;;;;5047797;28;20203;-74
2023/03/18 05:12:37;;;;;;;7.53;6.15;;;;;17.10;100693.00;;;;5047948;28;20678;-74
2023/03/18 05:15:05;;;;;;;9.68;6.07;;;;;17.10;100696.00;;;;5044670;28;20199;-74
2023/03/18 05:17:32;;;;;;;7.22;6.15;;;;;17.10;100703.00;;;;5041505;28;20215;-74
2023/03/18 05:20:03;;;;;;;8.30;5.93;;;;;17.10;100702.00;;;;5047165;28;20235;-74
2023/03/18 05:22:30;;;;;;;6.95;6.15;;;;;17.10;100709.00;;;;5046366;28;20282;-75
2023/03/18 05:24:57;;;;;;;9.05;6.88;;;;;17.10;100716.00;;;;5049424;28;20199;-75
2023/03/18 05:27:26;;;;;;;9.77;6.35;;;;;17.10;100719.00;;;;5047321;28;20196;-75
2023/03/18 05:29:53;;;;;;;9.30;6.72;;;;;17.10;100721.00;;;;5048946;28;20219;-75
2023/03/18 05:32:20;;;;;;;11.65;6.82;;;;;17.10;100716.00;;;;5047879;28;20207;-75
2023/03/18 05:34:48;;;;;;;7.25;5.40;;;;;17.10;100715.00;;;;5047360;28;20624;-75
2023/03/18 05:37:16;;;;;;;8.75;6.03;;;;;17.10;100715.00;;;;5044571;28;20218;-75
2023/03/18 05:39:44;;;;;;;8.40;6.18;;;;;17.10;100728.00;;;;5040944;28;20215;-75
2023/03/18 05:42:13;;;;;;;7.15;5.82;;;;;17.10;100723.00;;;;5043125;28;20200;-75
2023/03/18 05:44:41;;;;;;;10.13;5.93;;;;;17.10;100722.00;;;;5055859;28;20203;-74
2023/03/18 05:47:09;;;;;;;12.43;6.13;;;;;17.10;100722.00;;;;5048718;28;20204;-75
2023/03/18 05:49:37;;;;;;;9.05;6.47;;;;;17.10;100723.00;;;;5048892;28;20200;-75
2023/03/18 05:52:04;;;;;;;9.48;6.47;;;;;17.10;100723.00;;;;5043751;28;20250;-74
2023/03/18 05:54:33;;;;;;;7.88;6.35;;;;;17.10;100732.00;;;;5031347;28;20211;-75
2023/03/18 05:57:01;;;;;;;9.43;5.97;;;;;17.10;100733.00;;;;5048132;28;20208;-75
2023/03/18 05:59:29;;;;;;;8.45;5.63;;;;;17.10;100735.00;;;;5048949;28;20284;-74
2023/03/18 06:01:56;;;;;;;8.13;5.75;;;;;17.10;100736.00;;;;5048350;28;20673;-75
2023/03/18 06:04:25;;;;;;;9.93;6.20;;;;;17.10;100745.00;;;;5049765;28;20207;-74
2023/03/18 06:06:55;;;;;;;9.60;6.05;;;;;17.10;100745.00;;;;5047800;28;20265;-75
2023/03/18 06:09:23;;;;;;;8.05;5.28;;;;;17.10;100745.00;;;;5045358;28;20674;-75
2023/03/18 06:11:51;;;;;;;10.57;5.93;;;;;17.10;100735.00;;;;5042746;28;20204;-75
2023/03/18 06:14:19;;;;;;;11.25;5.90;;;;;17.20;100731.00;;;;5029487;28;20199;-75
2023/03/18 06:16:46;;;;;;;13.90;6.30;;;;;17.20;100724.00;;;;5044907;28;20195;-75
2023/03/18 06:19:14;;;;;;;9.30;6.25;;;;;17.20;100749.00;;;;5048760;28;20638;-75
2023/03/18 06:21:41;;;;;;;8.68;6.15;;;;;17.20;100741.00;;;;5046375;28;20196;-75
2023/03/18 06:24:09;;;;;;;7.35;5.90;;;;;17.20;100751.00;;;;5043134;28;20208;-75
2023/03/18 06:26:37;;;;;;;9.95;6.03;;;;;17.20;100754.00;;;;5043682;28;20729;-75
2023/03/18 06:29:05;;;;;;;8.40;5.63;;;;;17.20;100764.00;;;;5044732;28;20280;-74
2023/03/18 06:31:33;;;;;;;6.60;5.25;;;;;17.20;100773.00;;;;5040500;28;20627;-74
2023/03/18 06:34:01;;;;;;;8.35;6.18;;;;;17.20;100770.00;;;;5047011;28;20629;-75
2023/03/18 06:36:28;;;;;;;8.30;6.13;;;;;17.20;100775.00;;;;5045474;28;20240;-75
2023/03/18 06:38:56;;;;;;;8.80;5.70;;;;;17.20;100770.00;;;;5048274;28;20196;-75
2023/03/18 06:41:23;;;;;;;10.20;5.80;;;;;17.30;100764.00;;;;5047556;28;20653;-75
2023/03/18 06:43:52;;;;;;;8.48;5.75;;;;;17.30;100768.00;;;;5048110;28;20638;-75
2023/03/18 06:46:22;;;;;;;8.68;6.15;;;;;17.30;100765.00;;;;5044312;28;20586;-75
2023/03/18 06:48:49;;;;;;;9.63;6.60;;;;;17.30;100771.00;;;;5044955;28;20310;-74
2023/03/18 06:51:17;;;;;;;9.88;7.22;;;;;17.40;100777.00;;;;5049007;28;20211;-75
2023/03/18 06:53:45;;;;;;;9.05;7.53;;;;;17.40;100782.00;;;;5049021;28;20287;-75
2023/03/18 06:56:15;;;;;;;8.70;6.32;;;;;17.40;100787.00;;;;5043828;28;20438;-75
2023/03/18 06:58:42;;;;;;;7.97;6.60;;;;;17.40;100793.00;;;;5040750;28;20202;-75
2023/03/18 07:01:11;;;;;;;12.55;6.60;;;;;17.50;100794.00;;;;5044417;28;20227;-75
2023/03/18 07:03:39;;;;;;;10.38;6.60;;;;;17.50;100790.00;;;;5040991;28;20284;-75
2023/03/18 07:06:08;;;;;;;9.00;6.63;;;;;17.50;100796.00;;;;5038008;28;20200;-75
2023/03/18 07:08:36;;;;;;;10.23;6.70;;;;;17.50;100797.00;;;;5047089;28;20230;-75
2023/03/18 07:11:03;;;;;;;12.85;6.68;;;;;17.50;100798.00;;;;5038705;28;20723;-75
2023/03/18 07:13:31;;;;;;;9.57;6.57;;;;;17.50;100797.00;;;;5039077;28;20220;-75
2023/03/18 07:15:59;;;;;;;9.50;6.65;;;;;17.50;100796.00;;;;5040659;28;20200;-76
2023/03/18 07:18:26;;;;;;;11.00;7.18;;;;;17.50;100800.00;;;;5037854;28;20290;-75
2023/03/18 07:20:55;;;;;;;10.90;6.53;;;;;17.50;100805.00;;;;5037492;28;20270;-75
2023/03/18 07:23:22;;;;;;;12.98;7.22;;;;;17.50;100806.00;;;;5047183;28;20187;-75
2023/03/18 07:25:50;;;;;;;10.27;6.90;;;;;17.60;100817.00;;;;5046085;28;20294;-75
2023/03/18 07:28:17;;;;;;;12.18;7.15;;;;;17.60;100823.00;;;;5041677;28;20289;-75
2023/03/18 07:30:45;;;;;;;12.05;7.60;;;;;17.60;100813.00;;;;5037030;28;20230;-76
2023/03/18 07:33:13;;;;;;;10.38;6.80;;;;;17.60;100818.00;;;;5047455;28;20210;-75
2023/03/18 07:35:40;;;;;;;11.23;7.80;;;;;17.60;100816.00;;;;5045468;28;20207;-76
2023/03/18 07:38:10;;;;;;;9.45;7.22;;;;;17.60;100822.00;;;;5045528;28;20195;-76
2023/03/18 07:40:38;;;;;;;9.30;7.20;;;;;17.70;100834.00;;;;5050905;28;20280;-75
2023/03/18 07:43:06;;;;;;;10.55;7.68;;;;;17.70;100824.00;;;;5050583;28;20191;-75
2023/03/18 07:45:33;;;;;;;10.38;7.75;;;;;17.70;100836.00;;;;5048132;28;20210;-75
2023/03/18 07:48:00;;;;;;;11.27;8.13;;;;;17.80;100833.00;;;;5050460;28;20273;-75
2023/03/18 07:50:28;;;;;;;11.73;7.47;;;;;17.80;100830.00;;;;5051235;28;20207;-75
2023/03/18 07:52:55;;;;;;;11.80;7.53;;;;;17.90;100834.00;;;;5039663;28;20208;-75
2023/03/18 07:55:24;;;;;;;8.25;6.97;;;;;17.90;100821.00;;;;5052016;28;20229;-75
2023/03/18 07:57:52;;;;;;;10.85;7.78;;;;;17.90;100833.00;;;;5051409;28;20214;-75
2023/03/18 08:00:21;;;;;;;12.98;7.70;;;;;18.00;100835.00;;;;5051548;28;20227;-76
2023/03/18 08:02:48;;;;;;;10.07;7.47;;;;;18.00;100844.00;;;;5035130;28;20231;-75
2023/03/18 08:05:17;;;;;;;11.30;8.25;;;;;18.10;100835.00;;;;5043654;28;20196;-76
2023/03/18 08:07:45;;;;;;;10.25;7.93;;;;;18.10;100844.00;;;;5046034;28;20231;-75
2023/03/18 08:10:13;;;;;;;9.65;7.28;;;;;18.20;100837.00;;;;5046591;28;20219;-75
2023/03/18 08:12:42;;;;;;;10.90;7.20;;;;;18.20;100843.00;;;;5043638;28;20206;-74
2023/03/18 08:15:11;;;;;;;10.13;8.35;;;;;18.30;100846.00;;;;5049434;28;20200;-74
2023/03/18 08:17:38;;;;;;;11.00;7.72;;;;;18.40;100848.00;;;;5045763;28;20204;-76
2023/03/18 08:20:08;;;;;;;8.93;7.32;;;;;18.50;100843.00;;;;5047527;28;20685;-77
2023/03/18 08:22:35;;;;;;;10.35;7.57;;;;;18.50;100835.00;;;;5048816;28;20661;-77
2023/03/18 08:25:03;;;;;;;12.65;7.72;;;;;18.50;100845.00;;;;5047843;28;20196;-77
2023/03/18 08:27:30;;;;;;;10.18;7.38;;;;;18.60;100851.00;;;;5044675;28;20192;-77
2023/03/18 08:29:59;;;;;;;9.65;7.70;;;;;18.60;100844.00;;;;5045541;28;20222;-77
2023/03/18 08:32:26;;;;;;;9.00;6.85;;;;;18.60;100838.00;;;;5040942;28;20279;-77
2023/03/18 08:34:54;;;;;;;10.27;6.28;;;;;18.70;100844.00;;;;5049981;28;20243;-78
2023/03/18 08:37:21;;;;;;;10.30;7.85;;;;;18.70;100833.00;;;;5042413;28;20193;-78
2023/03/18 08:39:48;;;;;;;8.90;7.15;;;;;18.80;100832.00;;;;5043652;28;20192;-76
2023/03/18 08:42:16;;;;;;;10.95;7.47;;;;;18.80;100833.00;;;;5040842;28;20227;-75
2023/03/18 08:44:43;;;;;;;10.02;7.38;;;;;18.90;100833.00;;;;5040910;28;20226;-77
2023/03/18 08:47:12;;;;;;;10.80;7.88;;;;;18.90;100837.00;;;;5042679;28;20200;-76
2023/03/18 08:49:40;;;;;;;11.32;7.43;;;;;19.00;100832.00;;;;5041774;28;20202;-77
2023/03/18 08:52:07;;;;;;;10.52;7.38;;;;;19.00;100836.00;;;;5048468;28;20196;-76
2023/03/18 08:54:34;;;;;;;8.70;7.53;;;;;19.00;100834.00;;;;5046957;28;20219;-77
2023/03/18 08:57:02;;;;;;;8.75;6.13;;;;;19.10;100835.00;;;;5049406;28;20199;-76
2023/03/18 08:59:29;;;;;;;10.55;7.22;;;;;19.10;100836.00;;;;5048074;28;20203;-77
2023/03/18 09:01:57;;;;;;;12.23;7.35;;;;;19.20;100837.00;;;;5048644;28;20258;-77
2023/03/18 09:04:26;;;;;;;8.32;6.80;;;;;19.20;100839.00;;;;5050280;28;20195;-77
2023/03/18 09:06:53;;;;;;;8.98;5.88;;;;;19.20;100847.00;;;;5050286;28;20584;-77
2023/03/18 09:09:20;;;;;;;10.82;7.10;;;;;19.20;100856.00;;;;5049996;28;20290;-77
2023/03/18 09:11:48;;;;;;;9.50;6.82;;;;;19.20;100850.00;;;;5048328;28;22089;-78
2023/03/18 09:14:16;;;;;;;8.93;6.18;;;;;19.20;100856.00;;;;5045140;28;20208;-77
2023/03/18 09:16:44;;;;;;;7.60;6.05;;;;;19.20;100852.00;;;;5047311;28;20287;-76
2023/03/18 09:19:12;;;;;;;8.00;5.95;;;;;19.20;100852.00;;;;5048836;28;20287;-77
2023/03/18 09:21:40;;;;;;;9.70;6.75;;;;;19.20;100858.00;;;;5049017;28;20230;-77
2023/03/18 09:24:09;;;;;;;8.18;6.88;;;;;19.20;100857.00;;;;5048334;28;20211;-76
2023/03/18 09:26:37;;;;;;;8.50;5.82;;;;;19.20;100866.00;;;;5046528;28;20310;-76
2023/03/18 09:29:05;;;;;;;8.73;5.53;;;;;19.20;100863.00;;;;5048565;28;20234;-77
2023/03/18 09:31:32;;;;;;;9.02;5.57;;;;;19.20;100870.00;;;;5049721;28;20195;-76
2023/03/18 09:34:01;;;;;;;8.57;5.97;;;;;19.30;100867.00;;;;5039401;28;20204;-77
2023/03/18 09:36:28;;;;;;;8.80;6.13;;;;;19.30;100872.00;;;;5049913;28;20203;-77
2023/03/18 09:38:59;;;;;;;9.02;5.60;;;;;19.30;100870.00;;;;5047846;28;20214;-77
2023/03/18 09:41:35;;;;;;;8.25;6.07;;;;;19.30;100876.00;;;;5049824;28;20227;-76
2023/03/18 09:44:14;;;;;;;5.82;5.10;;;;;19.30;100881.00;;;;5048959;28;21013;-76
2023/03/18 09:47:04;;;;;;;7.22;6.20;;;;;19.30;100890.00;;;;5048727;28;20196;-77
2023/03/18 09:49:42;;;;;;;8.98;6.18;;;;;19.50;100887.00;;;;5041188;28;21019;-77
2023/03/18 09:52:21;;;;;;;5.85;4.97;;;;;19.50;100883.00;;;;5048458;28;20201;-77
2023/03/18 09:54:56;;;;;;;8.10;6.07;;;;;19.60;100885.00;;;;5049247;28;20195;-78
2023/03/18 09:57:26;;;;;;;7.00;5.53;;;;;19.70;100892.00;;;;5040574;28;20738;-78
2023/03/18 09:59:59;;;;;;;7.13;5.30;;;;;19.70;100885.00;;;;5041532;28;20654;-78
2023/03/18 10:02:33;;;;;;;6.68;5.35;;;;;19.80;100892.00;;;;5045592;28;21010;-77
2023/03/18 10:05:05;;;;;;;7.57;5.53;;;;;19.90;100892.00;;;;5040199;28;20200;-78
2023/03/18 10:07:37;;;;;;;6.95;5.68;;;;;19.90;100882.00;;;;5044497;28;20232;-77
2023/03/18 10:10:20;;;;;;;6.82;4.90;;;;;19.90;100890.00;;;;5048080;28;20195;-76
2023/03/18 10:12:52;;;;;;;7.43;5.70;;;;;19.90;100881.00;;;;5048383;28;20195;-78
2023/03/18 10:15:23;;;;;;;7.40;5.68;;;;;19.90;100890.00;;;;5047943;28;20199;-77
2023/03/18 10:17:56;;;;;;;6.13;4.63;;;;;20.00;100895.00;;;;5044650;28;20682;-77
2023/03/18 10:20:33;;;;;;;6.43;5.18;;;;;20.00;100900.00;;;;5048195;28;20191;-77
2023/03/18 10:23:13;;;;;;;8.73;4.72;;;;;20.10;100882.00;;;;5048999;28;20214;-78
2023/03/18 10:25:47;;;;;;;5.95;5.20;;;;;20.10;100892.00;;;;5044044;28;20199;-77
2023/03/18 10:28:48;;;;;;;6.05;4.63;;;;;20.10;100884.00;;;;5041044;28;20282;-77
2023/03/18 10:31:28;;;;;;;6.15;4.88;;;;;20.20;100886.00;;;;5042674;28;20299;-77
2023/03/18 10:33:59;;;;;;;5.63;4.38;;;;;20.30;100889.00;;;;5048147;28;20206;-77
2023/03/18 10:36:33;;;;;;;7.65;4.65;;;;;20.40;100883.00;;;;5046170;28;20199;-77
2023/03/18 10:39:02;;;;;;;6.03;5.03;;;;;20.50;100884.00;;;;5047949;28;20207;-77
2023/03/18 10:41:33;;;;;;;7.18;4.72;;;;;20.50;100880.00;;;;5042378;28;20274;-77
2023/03/18 10:44:07;;;;;;;5.32;4.68;;;;;20.60;100876.00;;;;5045619;28;20210;-77
2023/03/18 10:46:36;;;;;;;5.55;4.38;;;;;20.70;100881.00;;;;5040509;28;20304;-77
2023/03/18 10:49:10;;;;;;;6.70;4.78;;;;;20.90;100874.00;;;;5041863;28;20338;-77
2023/03/18 10:51:44;;;;;;;4.93;3.97;;;;;21.00;100882.00;;;;5036156;28;20200;-77
2023/03/18 10:54:15;;;;;;;4.80;3.85;;;;;21.20;100884.00;;;;5042089;28;20306;-78
2023/03/18 10:56:44;;;;;;;6.38;4.28;;;;;21.40;100885.00;;;;5045752;28;20278;-77
2023/03/18 10:59:16;;;;;;;6.20;3.88;;;;;21.50;100888.00;;;;5038285;28;20215;-77
2023/03/18 11:01:47;;;;;;;5.30;4.03;;;;;21.60;100893.00;;;;5045554;28;20220;-79
2023/03/18 11:04:17;;;;;;;5.40;3.80;;;;;21.70;100883.00;;;;5039701;28;20400;-76
2023/03/18 11:06:48;;;;;;;6.78;3.95;;;;;21.70;100889.00;;;;5029106;28;20211;-76
2023/03/18 11:09:18;;;;;;;4.47;3.65;;;;;21.80;100890.00;;;;5035886;28;20194;-76
2023/03/18 11:11:49;;;;;;;5.75;4.05;;;;;21.80;100883.00;;;;5046425;28;20196;-75
2023/03/18 11:14:19;;;;;;;3.60;2.90;;;;;21.90;100888.00;;;;5047510;28;20203;-75
2023/03/18 11:16:49;;;;;;;8.15;3.92;;;;;22.00;100887.00;;;;5032784;28;20763;-76
2023/03/18 11:19:30;;;;;;;5.50;3.38;;;;;21.90;100881.00;;;;5043797;28;20238;-78
2023/03/18 11:22:05;;;;;;;4.15;3.33;;;;;22.00;100875.00;;;;5046555;28;20215;-77
2023/03/18 11:24:41;;;;;;;6.32;3.60;;;;;22.00;100880.00;;;;5046666;28;20199;-77
2023/03/18 11:30:06;;;;;;;5.63;3.15;;;;;22.10;100885.00;;;;5091826;27;1232974;-76
2023/03/18 11:32:35;;;;;;;3.30;3.00;;;;;22.10;100890.00;;;;5099140;28;20676;-76
2023/03/18 11:35:05;;;;;;;4.40;3.25;;;;;22.20;100886.00;;;;5099292;28;20648;-76
2023/03/18 11:37:36;;;;;;;4.82;3.13;;;;;22.20;100888.00;;;;5093216;28;20206;-76
2023/03/18 11:40:29;;;;;;;4.43;2.75;;;;;22.10;100878.00;;;;5100343;28;20202;-76
2023/03/18 11:42:58;;;;;;;3.20;2.05;;;;;22.20;100884.00;;;;5085103;28;20194;-76
2023/03/18 11:45:47;;;;;;;3.78;2.55;;;;;22.10;100877.00;;;;5104460;28;20200;-76
2023/03/18 11:48:27;;;;;;;3.53;2.80;;;;;22.20;100889.00;;;;5103338;28;20248;-76
2023/03/18 11:51:16;;;;;;;4.43;2.60;;;;;22.20;100890.00;;;;5095497;28;20217;-76
2023/03/18 11:53:56;;;;;;;3.95;2.90;;;;;22.20;100886.00;;;;5099670;28;20200;-76
2023/03/18 11:56:29;;;;;;;4.32;2.63;;;;;22.20;100888.00;;;;5101041;28;20197;-76
2023/03/18 11:59:22;;;;;;;6.35;3.30;;;;;22.20;100882.00;;;;5098809;28;20250;-76
2023/03/18 12:02:01;;;;;;;3.13;2.50;;;;;22.20;100875.00;;;;5075833;28;20205;-76
2023/03/18 12:05:00;;;;;;;4.43;2.97;;;;;22.20;100877.00;;;;5101044;28;20284;-76
2023/03/18 12:07:44;;;;;;;4.53;2.42;;;;;22.30;100876.00;;;;5088936;28;20194;-77
2023/03/18 12:10:19;;;;;;;4.15;2.45;;;;;22.30;100869.00;;;;5101284;28;20292;-76
2023/03/18 12:13:08;;;;;;;3.80;2.45;;;;;22.40;100882.00;;;;5102847;28;20217;-76
2023/03/18 12:15:47;;;;;;;5.22;2.75;;;;;22.40;100878.00;;;;5099821;28;20678;-76
2023/03/18 12:18:32;;;;;;;4.55;2.33;;;;;22.40;100876.00;;;;5103928;28;20192;-76
2023/03/18 12:21:11;;;;;;;5.93;2.80;;;;;22.40;100875.00;;;;5104760;28;20214;-76